LTAY/DNZ METAR and TAF weather

Enter ICAO airport designator
Station Type Date Time Source
LTAY METAR 2021/03/05 11:50 UTC NOAA

LTAY 051150Z 29005KT 250V350 CAVOK 18/M10 Q1020


Station Type Date Time Source
LTAY Decoded METAR 2021/03/05 11:50 UTC NOAA

Cardak, Turkey (LTAY) 37-47N 029-42E
Mar 05, 2021 - 06:50 AM EST / 2021.03.05 1150 UTC
Wind: from the WNW (290 degrees) at 6 MPH (5 KT) (direction variable):0
Visibility: greater than 7 mile(s):0
Temperature: 64 F (18 C)
Dew Point: 14 F (-10 C)
Relative Humidity: 13%
Pressure (altimeter): 30.12 in. Hg (1020 hPa)
ob: LTAY 051150Z 29005KT 250V350 CAVOK 18/M10 Q1020
cycle: 12

Station Type Date Time Source
LTAY TAF UTC NOAA

Error!

Example: see airport list